createdAt,value
2019-05-13T00:00:44.423Z,3.70
2019-05-13T00:03:13.657Z,2.40
2019-05-13T00:05:40.910Z,1.70
2019-05-13T00:08:08.678Z,1.80
2019-05-13T00:10:36.320Z,1.50
2019-05-13T00:13:04.481Z,1.70
2019-05-13T00:15:33.952Z,1.50
2019-05-13T00:18:03.608Z,1.50
2019-05-13T00:20:30.871Z,1.63
2019-05-13T00:22:58.346Z,1.90
2019-05-13T00:25:25.828Z,1.73
2019-05-13T00:27:53.739Z,1.60
2019-05-13T00:30:23.415Z,1.83
2019-05-13T00:32:50.582Z,1.93
2019-05-13T00:35:17.919Z,1.83
2019-05-13T00:37:45.420Z,1.80
2019-05-13T00:40:14.383Z,2.13
2019-05-13T00:42:44.166Z,1.90
2019-05-13T00:45:14.265Z,1.80
2019-05-13T00:47:43.453Z,1.70
2019-05-13T00:50:10.460Z,1.70
2019-05-13T00:52:38.172Z,1.90
2019-05-13T00:55:05.704Z,1.67
2019-05-13T00:57:34.183Z,1.93
2019-05-13T01:00:03.511Z,1.90
2019-05-13T01:02:31.063Z,1.93
2019-05-13T01:04:58.720Z,1.57
2019-05-13T01:07:28.972Z,1.60
2019-05-13T01:09:55.671Z,1.70
2019-05-13T01:12:23.794Z,1.70
2019-05-13T01:14:53.324Z,1.70
2019-05-13T01:17:20.653Z,1.73
2019-05-13T01:19:48.372Z,1.60
2019-05-13T01:22:16.358Z,1.50
2019-05-13T01:24:44.304Z,1.80
2019-05-13T01:27:13.379Z,1.73
2019-05-13T01:29:43.503Z,1.80
2019-05-13T01:32:11.157Z,1.77
2019-05-13T01:34:38.557Z,1.70
2019-05-13T01:37:06.306Z,1.50
2019-05-13T01:39:35.043Z,1.80
2019-05-13T01:42:03.632Z,1.87
2019-05-13T01:44:33.566Z,1.57
2019-05-13T01:47:01.658Z,1.80
2019-05-13T01:49:30.106Z,1.93
2019-05-13T01:51:57.421Z,2.00
2019-05-13T01:54:24.837Z,2.00
2019-05-13T01:56:53.542Z,2.00
2019-05-13T01:59:23.802Z,1.77
2019-05-13T02:01:50.773Z,2.00
2019-05-13T02:04:18.396Z,1.70
2019-05-13T02:06:46.646Z,1.80
2019-05-13T02:09:14.306Z,1.80
2019-05-13T02:11:44.455Z,1.90
2019-05-13T02:14:13.268Z,1.80
2019-05-13T02:16:40.759Z,1.80
2019-05-13T02:19:08.562Z,1.93
2019-05-13T02:21:36.303Z,2.10
2019-05-13T02:24:04.303Z,2.10
2019-05-13T02:26:34.539Z,1.93
2019-05-13T02:29:03.716Z,2.10
2019-05-13T02:31:44.954Z,1.80
2019-05-13T02:34:02.509Z,1.80
2019-05-13T02:36:32.648Z,2.00
2019-05-13T02:39:02.234Z,1.70
2019-05-13T02:41:28.196Z,2.00
2019-05-13T02:43:55.624Z,2.00
2019-05-13T02:46:23.608Z,1.97
2019-05-13T02:48:52.847Z,2.10
2019-05-13T02:51:23.009Z,1.90
2019-05-13T02:53:52.397Z,2.30
2019-05-13T02:56:22.400Z,1.90
2019-05-13T02:58:48.547Z,2.07
2019-05-13T03:01:15.999Z,1.80
2019-05-13T03:03:44.524Z,1.80
2019-05-13T03:06:13.280Z,2.00
2019-05-13T03:08:49.418Z,1.80
2019-05-13T03:11:12.658Z,1.80
2019-05-13T03:13:42.548Z,2.07
2019-05-13T03:16:15.841Z,2.07
2019-05-13T03:18:43.882Z,2.20
2019-05-13T03:21:13.056Z,2.00
2019-05-13T03:23:44.280Z,2.00
2019-05-13T03:26:13.060Z,2.10
2019-05-13T03:28:43.706Z,2.30
2019-05-13T03:31:16.823Z,2.10
2019-05-13T03:33:46.642Z,2.33
2019-05-13T03:36:15.248Z,2.00
2019-05-13T03:38:58.804Z,2.07
2019-05-13T03:41:12.242Z,2.03
2019-05-13T03:43:42.920Z,2.30
2019-05-13T03:46:12.243Z,2.17
2019-05-13T03:48:42.804Z,1.87
2019-05-13T03:51:12.932Z,2.13
2019-05-13T03:53:39.064Z,2.10
2019-05-13T03:56:06.616Z,2.40
2019-05-13T03:58:34.041Z,2.10
2019-05-13T04:01:02.860Z,1.90
2019-05-13T04:03:33.152Z,2.30
2019-05-13T04:06:03.279Z,2.00
2019-05-13T04:08:32.370Z,2.20
2019-05-13T04:10:58.937Z,1.90
2019-05-13T04:13:26.617Z,1.90
2019-05-13T04:15:54.366Z,2.13
2019-05-13T04:18:23.554Z,2.37
2019-05-13T04:20:53.011Z,2.90
2019-05-13T04:23:23.331Z,2.17
2019-05-13T04:25:53.379Z,2.20
2019-05-13T04:28:22.265Z,2.20
2019-05-13T04:30:52.648Z,2.17
2019-05-13T04:33:22.574Z,2.10
2019-05-13T04:35:48.769Z,2.17
2019-05-13T04:38:16.347Z,1.80
2019-05-13T04:40:43.935Z,2.10
2019-05-13T04:43:13.036Z,2.20
2019-05-13T04:45:43.016Z,2.10
2019-05-13T04:48:12.773Z,2.10
2019-05-13T04:50:42.921Z,2.50
2019-05-13T04:53:09.543Z,2.00
2019-05-13T04:55:37.553Z,2.30
2019-05-13T04:58:05.002Z,2.30
2019-05-13T05:01:02.160Z,2.33
2019-05-13T05:03:41.381Z,2.63
2019-05-13T05:06:26.455Z,3.03
2019-05-13T05:09:28.451Z,2.20
2019-05-13T05:12:38.096Z,2.10
2019-05-13T05:15:36.144Z,6.53
2019-05-13T05:18:42.298Z,6.43
2019-05-13T05:21:16.355Z,2.30
2019-05-13T05:24:11.575Z,2.20
2019-05-13T05:27:23.436Z,2.00
2019-05-13T05:30:52.439Z,2.47
2019-05-13T05:33:51.719Z,2.10
2019-05-13T05:36:57.214Z,2.63
2019-05-13T05:39:25.617Z,2.00
2019-05-13T05:41:55.594Z,2.50
2019-05-13T05:44:25.135Z,2.43
2019-05-13T05:46:55.395Z,2.10
2019-05-13T05:49:24.905Z,2.20
2019-05-13T05:51:58.734Z,3.07
2019-05-13T05:54:27.452Z,2.30
2019-05-13T05:56:55.763Z,2.20
2019-05-13T05:59:24.905Z,1.80
2019-05-13T06:01:54.795Z,1.85
2019-05-13T06:04:24.731Z,1.98
2019-05-13T06:06:53.891Z,2.05
2019-05-13T06:09:21.475Z,1.90
2019-05-13T06:11:49.397Z,1.70
2019-05-13T06:14:16.757Z,2.20
2019-05-13T06:16:44.103Z,2.72
2019-05-13T06:19:12.210Z,3.15
2019-05-13T06:21:42.015Z,2.08
2019-05-13T06:24:11.654Z,1.67
2019-05-13T06:26:39.043Z,1.70
2019-05-13T06:29:06.406Z,1.52
2019-05-13T06:31:33.871Z,1.80
2019-05-13T06:34:02.133Z,2.20
2019-05-13T06:36:31.688Z,1.55
2019-05-13T06:39:02.019Z,1.50
2019-05-13T06:41:28.665Z,1.85
2019-05-13T06:43:56.030Z,2.15
2019-05-13T06:46:23.476Z,2.30
2019-05-13T06:48:52.097Z,2.10
2019-05-13T06:51:22.038Z,1.80
2019-05-13T06:53:51.476Z,2.42
2019-05-13T06:56:18.257Z,1.90
2019-05-13T06:58:46.104Z,2.02
2019-05-13T07:01:13.462Z,1.62
2019-05-13T07:03:42.027Z,2.10
2019-05-13T07:06:12.297Z,1.60
2019-05-13T07:08:41.714Z,2.10
2019-05-13T07:11:18.655Z,1.90
2019-05-13T07:13:38.491Z,1.80
2019-05-13T07:16:05.883Z,1.65
2019-05-13T07:18:33.335Z,1.60
2019-05-13T07:21:02.244Z,1.98
2019-05-13T07:23:31.792Z,1.82
2019-05-13T07:26:01.541Z,1.62
2019-05-13T07:28:28.261Z,1.85
2019-05-13T07:30:55.728Z,1.72
2019-05-13T07:33:23.165Z,1.60
2019-05-13T07:35:58.074Z,1.85
2019-05-13T07:38:22.465Z,1.62
2019-05-13T07:40:56.942Z,2.62
2019-05-13T07:43:24.289Z,2.40
2019-05-13T07:45:51.684Z,2.52
2019-05-13T07:48:21.433Z,2.25
2019-05-13T07:50:59.079Z,1.90
2019-05-13T07:53:19.222Z,2.02
2019-05-13T07:55:47.124Z,2.10
2019-05-13T07:58:14.619Z,1.82
2019-05-13T08:00:42.154Z,2.17
2019-05-13T08:03:12.023Z,1.90
2019-05-13T08:05:38.895Z,1.72
2019-05-13T08:08:06.257Z,1.60
2019-05-13T08:10:33.653Z,1.65
2019-05-13T08:13:02.321Z,1.77
2019-05-13T08:15:31.652Z,1.77
2019-05-13T08:18:01.792Z,1.82
2019-05-13T08:20:28.650Z,1.92
2019-05-13T08:22:56.267Z,1.87
2019-05-13T08:25:23.671Z,1.70
2019-05-13T08:27:51.603Z,1.75
2019-05-13T08:30:19.194Z,2.55
2019-05-13T08:32:46.728Z,2.20
2019-05-13T08:35:14.733Z,1.95
2019-05-13T08:37:42.183Z,1.80
2019-05-13T08:40:12.044Z,1.72
2019-05-13T08:42:41.474Z,1.70
2019-05-13T08:45:08.721Z,1.72
2019-05-13T08:47:36.149Z,1.52
2019-05-13T08:50:04.634Z,2.08
2019-05-13T08:52:32.172Z,1.70
2019-05-13T08:55:01.422Z,1.95
2019-05-13T08:57:31.425Z,1.62
2019-05-13T08:59:58.385Z,1.62
2019-05-13T09:02:25.955Z,1.47
2019-05-13T09:04:53.360Z,1.50
2019-05-13T09:07:24.066Z,1.65
2019-05-13T09:09:51.226Z,1.40
2019-05-13T09:12:31.480Z,1.77
2019-05-13T09:14:48.106Z,1.92
2019-05-13T09:17:16.043Z,1.40
2019-05-13T09:19:43.691Z,1.60
2019-05-13T09:22:12.385Z,1.40
2019-05-13T09:24:42.460Z,1.90
2019-05-13T09:27:12.046Z,1.47
2019-05-13T09:29:42.329Z,1.40
2019-05-13T09:32:11.921Z,1.80
2019-05-13T09:34:41.991Z,1.50
2019-05-13T09:37:08.594Z,1.77
2019-05-13T09:39:36.044Z,1.42
2019-05-13T09:42:03.733Z,1.70
2019-05-13T09:44:32.714Z,1.42
2019-05-13T09:47:02.569Z,1.37
2019-05-13T09:49:32.468Z,1.70
2019-05-13T09:52:01.667Z,1.50
2019-05-13T09:54:32.220Z,1.50
2019-05-13T09:56:57.990Z,1.60
2019-05-13T09:59:25.361Z,1.67
2019-05-13T10:01:53.424Z,1.90
2019-05-13T10:04:22.242Z,1.75
2019-05-13T10:06:49.915Z,1.60
2019-05-13T10:09:17.744Z,1.55
2019-05-13T10:11:45.141Z,1.90
2019-05-13T10:14:12.500Z,1.60
2019-05-13T10:16:42.087Z,1.95
2019-05-13T10:19:09.155Z,1.40
2019-05-13T10:21:37.596Z,1.50
2019-05-13T10:24:05.071Z,1.37
2019-05-13T10:26:32.697Z,1.50
2019-05-13T10:29:00.511Z,1.50
2019-05-13T10:31:27.971Z,1.52
2019-05-13T10:33:55.406Z,1.90
2019-05-13T10:36:22.935Z,1.67
2019-05-13T10:38:52.209Z,1.72
2019-05-13T10:41:22.290Z,1.50
2019-05-13T10:43:52.122Z,1.82
2019-05-13T10:46:18.999Z,1.67
2019-05-13T10:48:46.489Z,1.62
2019-05-13T10:51:13.965Z,1.62
2019-05-13T10:53:42.719Z,1.42
2019-05-13T10:56:10.806Z,1.37
2019-05-13T10:58:38.597Z,1.70
2019-05-13T11:01:06.043Z,1.20
2019-05-13T11:03:33.554Z,1.50
2019-05-13T11:06:00.990Z,1.60
2019-05-13T11:08:28.384Z,1.57
2019-05-13T11:10:56.037Z,1.75
2019-05-13T11:13:23.565Z,1.55
2019-05-13T11:15:57.503Z,1.70
2019-05-13T11:18:23.702Z,1.62
2019-05-13T11:20:49.900Z,1.27
2019-05-13T11:23:17.379Z,1.32
2019-05-13T11:25:45.594Z,1.42
2019-05-13T11:28:13.145Z,1.42
2019-05-13T11:30:42.333Z,1.77
2019-05-13T11:33:10.344Z,1.60
2019-05-13T11:35:37.904Z,1.52
2019-05-13T11:38:05.381Z,1.50
2019-05-13T11:40:32.775Z,1.57
2019-05-13T11:43:01.691Z,1.45
2019-05-13T11:45:31.558Z,1.47
2019-05-13T11:47:58.573Z,1.70
2019-05-13T11:50:26.031Z,1.60
2019-05-13T11:52:53.541Z,1.42
2019-05-13T11:55:23.027Z,1.25
2019-05-13T11:58:02.897Z,1.37
2019-05-13T12:00:53.077Z,1.30
2019-05-13T12:03:26.523Z,1.50
2019-05-13T12:05:54.192Z,1.30
2019-05-13T12:08:22.707Z,1.45
2019-05-13T12:10:51.825Z,1.60
2019-05-13T12:13:22.702Z,1.40
2019-05-13T12:15:49.987Z,1.70
2019-05-13T12:18:23.157Z,1.40
2019-05-13T12:20:48.435Z,1.30
2019-05-13T12:23:15.906Z,1.60
2019-05-13T12:25:43.957Z,1.57
2019-05-13T12:28:12.149Z,1.87
2019-05-13T12:30:41.803Z,1.60
2019-05-13T12:33:12.956Z,1.50
2019-05-13T12:35:38.538Z,1.30
2019-05-13T12:38:06.032Z,1.70
2019-05-13T12:40:34.412Z,1.67
2019-05-13T12:43:02.267Z,1.80
2019-05-13T12:45:30.338Z,1.47
2019-05-13T12:47:58.309Z,1.55
2019-05-13T12:50:26.064Z,1.50
2019-05-13T12:52:53.810Z,1.50
2019-05-13T12:55:21.757Z,1.50
2019-05-13T12:57:52.072Z,1.60
2019-05-13T13:00:18.861Z,1.50
2019-05-13T13:02:51.603Z,1.70
2019-05-13T13:05:20.693Z,1.72
2019-05-13T13:08:12.185Z,1.80
2019-05-13T13:10:16.865Z,1.80
2019-05-13T13:12:44.658Z,1.60
2019-05-13T13:15:36.005Z,1.20
2019-05-13T13:17:42.409Z,1.37
2019-05-13T13:20:14.738Z,1.40
2019-05-13T13:22:40.188Z,1.52
2019-05-13T13:25:08.287Z,1.80
2019-05-13T13:28:03.230Z,1.55
2019-05-13T13:30:08.451Z,1.50
2019-05-13T13:32:35.490Z,1.65
2019-05-13T13:35:03.885Z,1.50
2019-05-13T13:37:34.988Z,1.45
2019-05-13T13:40:03.305Z,1.45
2019-05-13T13:42:33.034Z,1.32
2019-05-13T13:45:04.714Z,1.50
2019-05-13T13:47:28.855Z,1.50
2019-05-13T13:49:56.273Z,1.37
2019-05-13T13:52:23.619Z,1.20
2019-05-13T13:55:02.169Z,1.42
2019-05-13T13:57:25.653Z,1.30
2019-05-13T14:00:19.287Z,1.80
2019-05-13T14:02:23.942Z,1.30
2019-05-13T14:04:49.770Z,1.40
2019-05-13T14:07:28.085Z,1.27
2019-05-13T14:09:47.334Z,1.30
2019-05-13T14:12:14.725Z,1.47
2019-05-13T14:14:42.177Z,1.22
2019-05-13T14:17:11.340Z,1.32
2019-05-13T14:19:39.048Z,1.20
2019-05-13T14:22:07.088Z,1.42
2019-05-13T14:24:34.447Z,1.30
2019-05-13T14:27:02.913Z,1.50
2019-05-13T14:29:41.056Z,1.20
2019-05-13T14:32:01.298Z,1.27
2019-05-13T14:34:31.781Z,1.20
2019-05-13T14:37:01.044Z,1.50
2019-05-13T14:39:28.219Z,1.35
2019-05-13T14:41:55.975Z,1.50
2019-05-13T14:44:24.054Z,1.50
2019-05-13T14:46:52.348Z,1.37
2019-05-13T14:49:22.377Z,1.60
2019-05-13T14:51:51.791Z,1.20
2019-05-13T14:54:18.867Z,1.47
2019-05-13T14:56:46.557Z,1.32
2019-05-13T14:59:14.002Z,1.50
2019-05-13T15:01:41.688Z,1.40
2019-05-13T15:04:11.981Z,1.45
2019-05-13T15:06:41.442Z,1.32
2019-05-13T15:09:08.030Z,1.60
2019-05-13T15:11:35.684Z,1.62
2019-05-13T15:14:03.295Z,1.62
2019-05-13T15:16:31.722Z,2.02
2019-05-13T15:19:01.516Z,1.40
2019-05-13T15:21:28.773Z,1.90
2019-05-13T15:23:56.132Z,1.50
2019-05-13T15:26:23.602Z,1.90
2019-05-13T15:28:51.916Z,1.35
2019-05-13T15:31:22.112Z,1.20
2019-05-13T15:33:52.434Z,1.42
2019-05-13T15:36:19.319Z,1.42
2019-05-13T15:38:46.632Z,1.57
2019-05-13T15:41:15.713Z,1.40
2019-05-13T15:43:44.016Z,1.62
2019-05-13T15:46:12.652Z,1.22
2019-05-13T15:48:42.168Z,4.12
2019-05-13T15:51:11.293Z,1.27
2019-05-13T15:53:39.157Z,1.90
2019-05-13T15:56:06.546Z,1.40
2019-05-13T15:58:39.664Z,1.27
2019-05-13T16:01:03.318Z,1.15
2019-05-13T16:03:30.742Z,1.50
2019-05-13T16:05:58.295Z,1.45
2019-05-13T16:08:26.275Z,1.40
2019-05-13T16:10:53.666Z,1.65
2019-05-13T16:13:22.184Z,1.30
2019-05-13T16:15:50.053Z,1.85
2019-05-13T16:18:17.743Z,1.80
2019-05-13T16:20:45.556Z,1.40
2019-05-13T16:23:13.436Z,1.42
2019-05-13T16:25:41.675Z,1.25
2019-05-13T16:28:09.573Z,1.40
2019-05-13T16:30:37.385Z,1.50
2019-05-13T16:33:04.702Z,1.57
2019-05-13T16:35:32.288Z,1.30
2019-05-13T16:38:01.833Z,1.40
2019-05-13T16:40:33.662Z,1.50
2019-05-13T16:42:58.508Z,1.17
2019-05-13T16:45:25.941Z,1.30
2019-05-13T16:47:57.452Z,1.67
2019-05-13T16:50:23.694Z,1.30
2019-05-13T16:52:51.219Z,1.30
2019-05-13T16:55:21.040Z,1.40
2019-05-13T16:57:47.967Z,1.60
2019-05-13T17:00:15.727Z,1.45
2019-05-13T17:02:43.050Z,1.67
2019-05-13T17:05:11.998Z,1.57
2019-05-13T17:07:42.006Z,1.30
2019-05-13T17:10:12.479Z,1.40
2019-05-13T17:12:40.111Z,1.22
2019-05-13T17:15:08.185Z,1.40
2019-05-13T17:17:35.964Z,1.77
2019-05-13T17:20:03.856Z,1.32
2019-05-13T17:22:31.881Z,1.50
2019-05-13T17:24:59.299Z,1.50
2019-05-13T17:27:26.998Z,1.45
2019-05-13T17:29:54.295Z,1.72
2019-05-13T17:32:22.304Z,1.72
2019-05-13T17:34:51.563Z,1.50
2019-05-13T17:37:19.191Z,1.60
2019-05-13T17:39:46.896Z,1.70
2019-05-13T17:42:14.216Z,1.95
2019-05-13T17:44:45.991Z,1.75
2019-05-13T17:47:11.640Z,1.70
2019-05-13T17:49:41.712Z,1.80
2019-05-13T17:52:11.851Z,1.47
2019-05-13T17:54:39.308Z,1.70
2019-05-13T17:57:06.979Z,1.67
2019-05-13T17:59:35.420Z,1.40
2019-05-13T18:02:02.869Z,1.40
2019-05-13T18:04:31.471Z,1.77
2019-05-13T18:07:01.400Z,1.45
2019-05-13T18:09:28.584Z,1.42
2019-05-13T18:11:56.049Z,1.40
2019-05-13T18:14:23.501Z,1.72
2019-05-13T18:16:50.934Z,1.90
2019-05-13T18:19:18.684Z,2.80
2019-05-13T18:21:46.044Z,2.37
2019-05-13T18:24:13.448Z,1.90
2019-05-13T18:26:41.919Z,1.40
2019-05-13T18:29:12.343Z,1.30
2019-05-13T18:31:41.808Z,6.15
2019-05-13T18:34:08.889Z,2.50
2019-05-13T18:36:36.183Z,2.62
2019-05-13T18:39:06.000Z,2.58
2019-05-13T18:41:33.762Z,2.05
2019-05-13T18:44:01.445Z,1.50
2019-05-13T18:46:28.844Z,1.37
2019-05-13T18:48:58.915Z,1.40
2019-05-13T18:51:26.367Z,1.32
2019-05-13T18:53:54.109Z,1.40
2019-05-13T18:56:21.904Z,1.45
2019-05-13T18:58:49.784Z,1.30
2019-05-13T19:01:21.437Z,1.32
2019-05-13T19:03:48.620Z,1.30
2019-05-13T19:06:16.019Z,1.47
2019-05-13T19:08:44.006Z,1.50
2019-05-13T19:11:11.748Z,1.52
2019-05-13T19:13:41.476Z,1.80
2019-05-13T19:16:08.655Z,1.60
2019-05-13T19:18:39.165Z,1.57
2019-05-13T19:21:06.571Z,1.70
2019-05-13T19:23:33.946Z,2.35
2019-05-13T19:26:02.083Z,1.90
2019-05-13T19:28:31.752Z,1.92
2019-05-13T19:30:59.461Z,1.72
2019-05-13T19:33:26.926Z,1.67
2019-05-13T19:35:54.507Z,1.90
2019-05-13T19:38:21.941Z,2.40
2019-05-13T19:40:49.282Z,4.05
2019-05-13T19:43:16.992Z,4.12
2019-05-13T19:45:44.756Z,3.70
2019-05-13T19:48:12.449Z,3.00
2019-05-13T19:50:41.603Z,2.22
2019-05-13T19:53:09.206Z,2.20
2019-05-13T19:55:36.948Z,2.77
2019-05-13T19:58:04.399Z,3.20
2019-05-13T20:00:32.170Z,3.20
2019-05-13T20:03:00.642Z,2.70
2019-05-13T20:05:28.133Z,2.40
2019-05-13T20:07:55.455Z,2.20
2019-05-13T20:10:23.526Z,1.60
2019-05-13T20:12:51.281Z,1.50
2019-05-13T20:15:19.420Z,1.50
2019-05-13T20:17:47.040Z,1.77
2019-05-13T20:20:14.416Z,2.83
2019-05-13T20:22:42.404Z,3.00
2019-05-13T20:25:13.142Z,2.72
2019-05-13T20:27:42.114Z,2.30
2019-05-13T20:30:11.435Z,2.60
2019-05-13T20:32:39.656Z,1.70
2019-05-13T20:35:07.356Z,3.10
2019-05-13T20:37:35.040Z,2.30
2019-05-13T20:40:02.814Z,1.97
2019-05-13T20:42:30.986Z,1.70
2019-05-13T20:44:58.440Z,2.10
2019-05-13T20:47:25.944Z,1.67
2019-05-13T20:50:01.334Z,2.70
2019-05-13T20:52:23.687Z,2.20
2019-05-13T20:54:51.378Z,1.83
2019-05-13T20:57:18.767Z,1.97
2019-05-13T20:59:46.503Z,2.00
2019-05-13T21:02:13.864Z,2.33
2019-05-13T21:04:41.497Z,1.73
2019-05-13T21:07:09.168Z,1.90
2019-05-13T21:09:36.578Z,2.10
2019-05-13T21:12:04.054Z,1.70
2019-05-13T21:14:31.975Z,1.77
2019-05-13T21:17:01.400Z,1.80
2019-05-13T21:19:39.136Z,1.90
2019-05-13T21:21:59.134Z,1.97
2019-05-13T21:24:26.816Z,1.90
2019-05-13T21:26:54.785Z,2.17
2019-05-13T21:29:22.188Z,1.67
2019-05-13T21:31:49.989Z,1.97
2019-05-13T21:34:17.600Z,2.00
2019-05-13T21:36:45.610Z,1.97
2019-05-13T21:39:13.349Z,1.97
2019-05-13T21:41:41.390Z,2.00
2019-05-13T21:44:08.827Z,2.10
2019-05-13T21:46:36.476Z,1.80
2019-05-13T21:49:03.832Z,1.90
2019-05-13T21:51:31.534Z,1.80
2019-05-13T21:54:01.055Z,2.03
2019-05-13T21:56:28.517Z,1.70
2019-05-13T21:58:55.872Z,1.90
2019-05-13T22:01:23.517Z,1.77
2019-05-13T22:03:51.488Z,1.80
2019-05-13T22:06:18.920Z,2.20
2019-05-13T22:08:47.023Z,1.90
2019-05-13T22:11:14.669Z,1.90
2019-05-13T22:13:42.135Z,2.40
2019-05-13T22:16:09.507Z,3.60
2019-05-13T22:18:37.433Z,2.80
2019-05-13T22:21:05.187Z,3.10
2019-05-13T22:23:32.856Z,2.70
2019-05-13T22:26:01.593Z,5.07
2019-05-13T22:28:31.251Z,3.67
2019-05-13T22:30:58.503Z,3.13
2019-05-13T22:33:25.801Z,5.83
2019-05-13T22:35:53.512Z,6.00
2019-05-13T22:38:21.419Z,4.83
2019-05-13T22:40:48.909Z,3.60
2019-05-13T22:43:16.289Z,3.30
2019-05-13T22:45:43.724Z,3.30
2019-05-13T22:48:12.075Z,4.13
2019-05-13T22:50:41.655Z,6.03
2019-05-13T22:53:09.110Z,6.20
2019-05-13T22:55:36.483Z,4.53
2019-05-13T22:58:03.807Z,3.70
2019-05-13T23:00:31.766Z,3.87
2019-05-13T23:03:01.635Z,4.60
2019-05-13T23:05:29.262Z,4.77
2019-05-13T23:07:56.593Z,4.57
2019-05-13T23:10:24.338Z,3.97
2019-05-13T23:12:52.140Z,2.53
2019-05-13T23:15:21.272Z,3.03
2019-05-13T23:17:48.848Z,3.70
2019-05-13T23:20:16.227Z,3.30
2019-05-13T23:22:44.213Z,2.87
2019-05-13T23:25:12.300Z,3.23
2019-05-13T23:27:41.544Z,3.30
2019-05-13T23:30:09.048Z,2.97
2019-05-13T23:32:36.403Z,2.90
2019-05-13T23:35:03.883Z,2.70
2019-05-13T23:37:31.230Z,3.00
2019-05-13T23:39:58.613Z,2.90
2019-05-13T23:42:26.284Z,3.07
2019-05-13T23:44:53.595Z,3.03
2019-05-13T23:47:21.838Z,2.80
2019-05-13T23:49:51.211Z,2.93
2019-05-13T23:52:18.570Z,2.77
2019-05-13T23:54:46.229Z,2.83
2019-05-13T23:57:13.576Z,3.10
2019-05-13T23:59:41.918Z,3.50
